In Rescue
 
Open Full Screen Window  High Contrast Mode
Wind Gusting 00 knots
05
April 02, 2020 11:21 PM CDT
Present Weather: Unknown Precipitation
Weather Information
Wind Direction
  300 °
Wind Speed
  05 kt (6 mph)
Wind Gust
  00 kt (0 mph)
Altimeter
29.95 in
Visibility
5 SM
Temperature
-03° C
27° F
Dewpoint
-03° C
27° F
Humidity
100%
1hr Rain Fall
00.00 in.
24hr Rain Fall
00.26 in.
Sky Condition
Overcast @ 700 ft
IFR

METAR KBJI 030421Z AUTO 30005KT 5SM UP OVC007 M03/M03 A2995 RMK AO2 T10281033

FAA Disclaimer: The data displayed is for advisory purposes only and is not to be used for flight planning or operations.